Flight Track Log - Related Links

Times and Time Zones

All times are in EDT time to prevent confusion due to time zone crossing. See the N9195F flight status page for this flight to view local times or setup timezone preferences in your user account.

Time Position Orientation Groundspeed Altitude Reporting Facility
EDT Latitude Longitude Course Direction KTS MPH feet Rate Location/Type
04:35PM 41.8901 -88.2132 169° South 153 176 2,500  Level FlightAware ADS-B
04:35PM 41.8833 -88.2115 171° South 166 191 3,000 556 Climbing FlightAware ADS-B
04:36PM 41.8494 -88.2043 173° South 176 203 3,000 -113 Level FlightAware ADS-B
04:36PM 41.8214 -88.1997 172° South 173 199 2,900 -109 Descending FlightAware ADS-B
04:36PM 41.8035 -88.1966 173° South 169 194 2,900 226 Level FlightAware ADS-B
04:37PM 41.7949 -88.1951 172° South 163 188 3,100 1,071 Climbing FlightAware ADS-B
04:37PM 41.7612 -88.1888 171° South 160 184 3,900 1,636 Climbing FlightAware ADS-B
04:38PM 41.7342 -88.1757 140° Southeast 174 200 4,900 1,015 Climbing FlightAware ADS-B
04:39PM 41.7182 -88.1558 136° Southeast 198 228 5,000  Climbing FlightAware ADS-B
04:39PM 41.7067 -88.1404 130° Southeast 199 229 4,900 -146 Descending FlightAware ADS-B
04:39PM 41.6933 -88.1176 126° Southeast 191 220 4,900  Level FlightAware ADS-B
04:40PM 41.6820 -88.0970 125° Southeast 180 207 4,900  Level FlightAware ADS-B
04:40PM 41.6772 -88.0768 95° East 166 191 4,900  Level FlightAware ADS-B
04:40PM 41.6768 -88.0585 90° East 166 191 4,900  Level FlightAware ADS-B
04:41PM 41.6770 -88.0351 88° East 165 190 4,900  Level FlightAware ADS-B
04:41PM 41.6776 -88.0159 88° East 173 199 4,900  Level FlightAware ADS-B
04:41PM 41.6781 -87.9944 88° East 174 200 4,900  Level FlightAware ADS-B
04:42PM 41.6783 -87.9895 88° East 174 200 4,900 150 Level FlightAware ADS-B
04:42PM 41.6796 -87.9525 87° East 170 196 5,000  Climbing FlightAware ADS-B
04:42PM 41.6804 -87.9308 87° East 173 199 4,900 -150 Descending FlightAware ADS-B
04:43PM 41.6812 -87.9084 87° East 175 201 4,900  Level FlightAware ADS-B
04:43PM 41.6818 -87.8932 87° East 176 203 4,900  Level FlightAware ADS-B
04:43PM 41.6828 -87.8648 87° East 176 203 4,900 162 Level FlightAware ADS-B
04:44PM 41.6836 -87.8460 86° East 174 200 5,000  Climbing FlightAware ADS-B
04:44PM 41.6843 -87.8303 86° East 179 206 4,900 -150 Descending FlightAware ADS-B
04:44PM 41.6856 -87.8014 87° East 179 206 4,900  Level FlightAware ADS-B
04:45PM 41.6864 -87.7807 87° East 179 206 4,900  Level FlightAware ADS-B
04:45PM 41.6867 -87.7721 87° East 179 206 4,900  Level FlightAware ADS-B
04:45PM 41.6879 -87.7351 88° East 177 204 4,900  Level FlightAware ADS-B
04:45PM 41.6884 -87.7185 88° East 177 204 4,900  Level FlightAware ADS-B
04:46PM 41.6896 -87.6704 89° East 181 208 4,900  Level FlightAware ADS-B
04:47PM 41.6899 -87.6482 89° East 180 207 4,900  Level FlightAware ADS-B
04:47PM 41.6930 -87.6248 75° East 173 199 4,900  Level FlightAware ADS-B
04:47PM 41.6974 -87.6045 74° East 177 204 4,900  Level FlightAware ADS-B
04:48PM 41.7022 -87.5821 74° East 174 200 4,900  Level FlightAware ADS-B
04:49PM 41.7066 -87.5200 90° East 197 227 4,900  Level FlightAware ADS-B
04:49PM 41.7065 -87.4847 90° East 196 226 4,900  Level FlightAware ADS-B
04:49PM 41.7065 -87.4607 90° East 195 224 4,900 732 Level FlightAware ADS-B
04:50PM 41.7065 -87.4347 90° East 191 220 5,400 1,814 Climbing FlightAware ADS-B
04:50PM 41.7064 -87.4128 90° East 181 208 6,200 2,286 Climbing FlightAware ADS-B
04:50PM 41.7067 -87.3869 87° East 174 200 7,000 2,129 Climbing FlightAware ADS-B
04:50PM 41.7085 -87.3768 71° East 171 197 7,300 2,143 Climbing FlightAware ADS-B
04:51PM 41.7188 -87.3474 64° Northeast 160 184 8,500 2,129 Climbing FlightAware ADS-B
04:52PM 41.7281 -87.3227 63° Northeast 159 183 9,500 1,355 Climbing FlightAware ADS-B
04:52PM 41.7387 -87.2941 64° Northeast 179 206 9,900 577 Climbing FlightAware ADS-B
04:52PM 41.7453 -87.2691 79° East 192 221 10,000 1,400 Climbing FlightAware ADS-B
04:53PM 41.7496 -87.2242 85° East 181 208 11,300 1,971 Climbing FlightAware ADS-B
04:54PM 41.7521 -87.1909 84° East 171 197 12,300 1,875 Climbing FlightAware ADS-B
04:54PM 41.7553 -87.1569 82° East 172 198 13,300 1,594 Climbing FlightAware ADS-B
04:55PM 41.7589 -87.1229 83° East 188 216 14,000 1,543 Climbing FlightAware ADS-B
04:55PM 41.7621 -87.0758 86° East 195 224 15,100 1,714 Climbing FlightAware ADS-B
04:56PM 41.7630 -87.0397 90° East 196 226 16,000 1,800 Climbing FlightAware ADS-B
04:56PM 41.7630 -87.0027 90° East 194 223 16,900 1,700 Climbing FlightAware ADS-B
04:57PM 41.7631 -86.9678 90° East 191 220 17,700 1,622 Climbing FlightAware ADS-B
04:58PM 41.7636 -86.9167 88° East 190 219 18,900 1,540 Climbing FlightAware ADS-B
04:59PM 41.7655 -86.8339 89° East 196 226 20,600 1,461 Climbing FlightAware ADS-B
04:59PM 41.7660 -86.7781 90° East 199 229 21,700 1,357 Climbing FlightAware ADS-B
05:00PM 41.7661 -86.7302 90° East 203 234 22,500 1,216 Climbing FlightAware ADS-B
05:01PM 41.7659 -86.6857 90° East 204 235 23,200 1,133 Climbing FlightAware ADS-B
05:02PM 41.7657 -86.6153 90° East 210 242 24,200 1,133 Climbing FlightAware ADS-B
05:02PM 41.7658 -86.5682 90° East 212 244 24,900 706 Climbing FlightAware ADS-B
05:03PM 41.7660 -86.5246 90° East 226 260 25,000 146 Climbing FlightAware ADS-B
05:03PM 41.7658 -86.5732 90° East 229 264 25,000  Level FlightAware ADS-B
05:04PM 41.7671 -86.4461 88° East 246 283 25,000  Level FlightAware ADS-B
05:04PM 41.7684 -86.3892 89° East 251 289 25,000  Level FlightAware ADS-B
05:05PM 41.7690 -86.3327 90° East 254 292 25,000  Level FlightAware ADS-B
05:05PM 41.7714 -86.2988 78° East 252 290 25,000  Level FlightAware ADS-B
05:06PM 41.7808 -86.2440 76° East 251 289 25,000  Level FlightAware ADS-B
05:07PM 41.7900 -86.1957 75° East 250 288 25,000  Level FlightAware ADS-B
05:07PM 41.8089 -86.0989 76° East 253 291 25,000  Level FlightAware ADS-B
05:10PM 41.8582 -85.8311 76° East 257 296 25,000  Level FlightAware ADS-B
05:11PM 41.8676 -85.7794 76° East 257 296 25,000  Level FlightAware ADS-B
05:12PM 41.8797 -85.7129 76° East 258 297 25,000  Level FlightAware ADS-B
05:12PM 41.8884 -85.6650 76° East 258 297 25,000  Level FlightAware ADS-B
05:13PM 41.8971 -85.6172 76° East 258 297 25,000  Level FlightAware ADS-B
05:14PM 41.9124 -85.5329 76° East 260 299 25,000  Level FlightAware ADS-B
05:14PM 41.9248 -85.4638 77° East 262 302 25,000  Level FlightAware ADS-B
05:15PM 41.9387 -85.3857 77° East 263 303 25,000  Level FlightAware ADS-B
05:16PM 41.9470 -85.3393 77° East 264 304 25,000  Level FlightAware ADS-B
05:16PM 41.9562 -85.2877 77° East 264 304 25,000  Level FlightAware ADS-B
05:17PM 41.9674 -85.2244 77° East 263 303 25,000  Level FlightAware ADS-B
05:19PM 41.9972 -85.0557 77° East 266 306 25,000  Level FlightAware ADS-B
05:19PM 42.0056 -85.0044 77° East 268 308 25,000  Level Chicago Center
05:20PM 42.0231 -84.9086 76° East 266 306 25,000  Level Chicago Center
05:26PM 42.1215 -84.3365 77° East 270 311 25,000  Level FlightAware ADS-B
05:27PM 42.1370 -84.2447 77° East 271 312 25,000  Level FlightAware ADS-B
05:27PM 42.1458 -84.1920 77° East 272 313 25,000  Level FlightAware ADS-B
05:28PM 42.1616 -84.0973 77° East 272 313 25,000  Level FlightAware ADS-B
05:29PM 42.1707 -84.0424 77° East 271 312 25,000 100 Level FlightAware ADS-B
05:29PM 42.1788 -83.9937 77° East 271 312 25,100  Climbing FlightAware ADS-B
05:33PM 42.2327 -83.6650 78° East 276 318 25,000 -26 Descending FlightAware ADS-B
05:33PM 42.2406 -83.6158 78° East 276 318 25,000  Level FlightAware ADS-B
05:34PM 42.2509 -83.5519 78° East 276 318 25,000  Level FlightAware ADS-B
05:41PM 42.3615 -82.8517 78° East 277 319 25,000  Level FlightAware ADS-B (CYYZ)
05:41PM 42.3707 -82.7918 78° East 278 320 25,000  Level FlightAware ADS-B (CYYZ)
05:42PM 42.3789 -82.7389 78° East 278 320 25,000  Level FlightAware ADS-B (CYYZ)
05:42PM 42.3842 -82.6879 83° East 278 320 25,000  Level FlightAware ADS-B (CYYZ)
05:43PM 42.3880 -82.6236 85° East 280 322 25,000  Level FlightAware ADS-B (CYYZ)
05:43PM 42.3902 -82.5791 83° East 277 319 25,000  Level FlightAware ADS-B (EPLB / LUZ)
05:44PM 42.3921 -82.5404 86° East 280 322 25,000  Level FlightAware ADS-B (CYYZ)
05:44PM 42.3933 -82.5124 87° East 281 323 25,000  Level FlightAware ADS-B (EPLB / LUZ)
05:45PM 42.3961 -82.4516 86° East 280 322 25,000  Level FlightAware ADS-B (CYYZ)
05:45PM 42.3996 -82.3718 86° East 280 322 25,000  Level FlightAware ADS-B (CYYZ)
05:46PM 42.4018 -82.3197 86° East 280 322 25,000  Level FlightAware ADS-B (CYYZ)
05:46PM 42.4035 -82.2845 86° East 281 323 25,000  Level FlightAware ADS-B (EPLB / LUZ)
05:47PM 42.4058 -82.2390 86° East 282 325 25,000  Level FlightAware ADS-B (CYYZ)
05:47PM 42.4062 -82.2303 86° East 283 326 25,000  Level FlightAware ADS-B (EPLB / LUZ)
05:47PM 42.4083 -82.1863 86° East 282 325 25,000  Level FlightAware ADS-B (CYYZ)
05:48PM 42.4104 -82.1415 87° East 282 325 25,000  Level FlightAware ADS-B (EPLB / LUZ)
05:48PM 42.4120 -82.1074 86° East 280 322 25,000  Level FlightAware ADS-B (CYYZ)
05:48PM 42.4104 -82.1415 86° East 282 325 25,000  Level FlightAware ADS-B (EPLB / LUZ)
05:49PM 42.4145 -82.0582 86° East 280 322 25,000  Level FlightAware ADS-B (CYYZ)
05:49PM 42.4172 -82.0056 86° East 282 325 25,000  Level FlightAware ADS-B (EPLB / LUZ)
05:50PM 42.4211 -81.9306 85° East 280 322 25,000  Level FlightAware ADS-B (CYYZ)
05:50PM 42.4244 -81.8726 85° East 280 322 25,000  Level FlightAware ADS-B (CYYZ)
05:50PM 42.4264 -81.8380 85° East 280 322 25,000  Level FlightAware ADS-B (CYYZ)
05:51PM 42.4311 -81.7594 85° East 280 322 25,000  Level FlightAware ADS-B (CYYZ)
05:52PM 42.4365 -81.6743 84° East 283 326 25,000  Level FlightAware ADS-B (CYYZ)
05:54PM 42.4484 -81.4991 84° East 284 327 25,000  Level FlightAware ADS-B (CYYZ)
05:54PM 42.4518 -81.4537 84° East 283 326 25,000  Level FlightAware ADS-B (CYYZ)
05:55PM 42.4563 -81.3923 84° East 284 327 25,000  Level FlightAware ADS-B (CYYZ)
05:55PM 42.4621 -81.3166 84° East 284 327 25,000  Level FlightAware ADS-B (CYYZ)
05:56PM 42.4686 -81.2348 83° East 285 328 25,000  Level FlightAware ADS-B (CYYZ)
05:57PM 42.4716 -81.1990 83° East 287 330 25,000  Level FlightAware ADS-B (CYYZ)
05:57PM 42.4778 -81.1272 83° East 288 331 25,000  Level FlightAware ADS-B (CYYZ)
05:58PM 42.4828 -81.0714 83° East 289 333 25,000  Level FlightAware ADS-B (CYYZ)
05:59PM 42.4942 -80.9902 75° East 291 335 25,000 -34 Level FlightAware ADS-B (CYYZ)
06:01PM 42.5439 -80.7365 75° East 292 336 24,900 -217 Descending FlightAware ADS-B (CYYZ)
06:01PM 42.5563 -80.6733 75° East 292 336 24,400 -923 Descending FlightAware ADS-B (CYYZ)
06:02PM 42.5655 -80.6255 75° East 292 336 23,900 -1,040 Descending FlightAware ADS-B (CYYZ)
06:03PM 42.5817 -80.5419 75° East 282 325 23,100 -1,100 Descending FlightAware ADS-B (CYYZ)
06:03PM 42.5861 -80.5194 75° East 280 322 22,800 -1,067 Descending FlightAware ADS-B (EPLB / LUZ)
06:03PM 42.5966 -80.4650 75° East 276 318 22,300 -982 Descending FlightAware ADS-B (CYYZ)
06:04PM 42.6001 -80.4469 75° East 274 315 21,900 -1,000 Descending FlightAware ADS-B (EPLB / LUZ)
06:04PM 42.6064 -80.4143 75° East 271 312 21,800 -1,000 Descending FlightAware ADS-B (CYYZ)
06:04PM 42.6158 -80.3661 75° East 269 310 21,300 -933 Descending FlightAware ADS-B (EPLB / LUZ)
06:05PM 42.6205 -80.3416 75° East 267 307 21,100 -947 Descending FlightAware ADS-B (CYYZ)
06:05PM 42.6279 -80.3037 75° East 267 307 20,700 -1,000 Descending FlightAware ADS-B (EPLB / LUZ)
06:05PM 42.6301 -80.2922 75° East 266 306 20,600 -811 Descending FlightAware ADS-B (CYYZ)
06:06PM 42.6389 -80.2461 75° East 264 304 20,200 -787 Descending FlightAware ADS-B (CYYZ)
06:06PM 42.6432 -80.2236 75° East 264 304 19,800 -982 Descending FlightAware ADS-B (CYYZ)
06:07PM 42.6544 -80.1640 76° East 262 302 19,300 -1,091 Descending FlightAware ADS-B (EPLB / LUZ)
06:07PM 42.6616 -80.1260 75° East 261 300 19,000 -941 Descending FlightAware ADS-B (CYYZ)
06:07PM 42.6702 -80.0804 75° East 259 298 18,500 -885 Descending FlightAware ADS-B (CYYZ)
06:08PM 42.6797 -80.0295 75° East 255 293 18,100 -840 Descending FlightAware ADS-B (CYYZ)
06:08PM 42.6785 -80.0359 76° East 256 295 17,800 -933 Descending FlightAware ADS-B (CYKF)
06:09PM 42.6925 -79.9599 76° East 250 288 17,400 -873 Descending FlightAware ADS-B (CYYZ)
06:09PM 42.7007 -79.9145 76° East 249 287 17,000 -800 Descending FlightAware ADS-B (CYYZ)
06:10PM 42.7091 -79.8684 76° East 247 284 16,600 -800 Descending FlightAware ADS-B (CYYZ)
06:10PM 42.7170 -79.8251 75° East 247 284 16,200 -800 Descending FlightAware ADS-B (CYYZ)
06:11PM 42.7257 -79.7779 75° East 245 282 15,800 -800 Descending FlightAware ADS-B (CYYZ)
06:11PM 42.7336 -79.7355 75° East 242 278 15,400 -787 Descending FlightAware ADS-B (CYYZ)
06:12PM 42.7422 -79.6889 76° East 240 276 15,000 -787 Descending FlightAware ADS-B (CYYZ)
06:12PM 42.7502 -79.6451 76° East 240 276 14,600 -900 Descending FlightAware ADS-B (CYYZ)
06:12PM 42.7474 -79.6602 76° East 239 275 14,400 -800 Descending FlightAware ADS-B (EPLB / LUZ)
06:13PM 42.7580 -79.6023 75° East 239 275 14,200 -732 Descending FlightAware ADS-B (CYYZ)
06:13PM 42.7622 -79.5798 76° East 235 270 13,900 -800 Descending FlightAware ADS-B (EPLB / LUZ)
06:13PM 42.7662 -79.5580 76° East 232 267 13,800 -778 Descending FlightAware ADS-B (CYYZ)
06:14PM 42.7776 -79.4962 75° East 219 252 13,200 -831 Descending FlightAware ADS-B (CYYZ)
06:14PM 42.7828 -79.4693 75° East 218 251 12,900 -1,000 Descending FlightAware ADS-B (EPLB / LUZ)
06:14PM 42.7852 -79.4566 75° East 216 249 12,700 -1,263 Descending FlightAware ADS-B (CYYZ)
06:15PM 42.7923 -79.4190 76° East 220 253 12,100 -1,200 Descending FlightAware ADS-B
06:15PM 42.7927 -79.4167 76° East 219 252 12,100 -1,313 Level FlightAware ADS-B (CYYZ)
06:15PM 42.7996 -79.3787 76° East 220 253 11,400 -1,610 Descending FlightAware ADS-B (CYYZ)
06:16PM 42.8027 -79.3615 76° East 221 254 11,000 -1,600 Descending FlightAware ADS-B (EPLB / LUZ)
06:16PM 42.8073 -79.3360 76° East 218 251 10,600 -1,469 Descending FlightAware ADS-B (CYYZ)
06:16PM 42.8145 -79.2966 76° East 214 246 9,800 -1,588 Descending FlightAware ADS-B (CYYZ)
06:16PM 42.8150 -79.2933 76° East 213 245 9,700 -1,680 Descending FlightAware ADS-B (EPLB / LUZ)
06:17PM 42.8189 -79.2717 76° East 210 242 9,100 -1,556 Descending FlightAware ADS-B (EPLB / LUZ)
06:17PM 42.8216 -79.2569 76° East 208 239 9,000 -1,500 Descending FlightAware ADS-B (CYYZ)
06:17PM 42.8250 -79.2380 76° East 208 239 8,600 -1,400 Descending FlightAware ADS-B (CYYZ)
06:17PM 42.8284 -79.2190 76° East 207 238 8,300 -1,355 Descending FlightAware ADS-B (EPLB / LUZ)
06:18PM 42.8318 -79.1998 76° East 202 232 7,900 -1,600 Descending FlightAware ADS-B (CYYZ)
06:18PM 42.8437 -79.1663 47° Northeast 197 227 7,100 -1,600 Descending FlightAware ADS-B (CYYZ)
06:19PM 42.8632 -79.1419 41° Northeast 192 221 6,300 -1,636 Descending FlightAware ADS-B (CYYZ)
06:19PM 42.8735 -79.1295 41° Northeast 191 220 5,900 -1,467 Descending FlightAware ADS-B (CYYZ)
06:19PM 42.8935 -79.1058 41° Northeast 188 216 5,200 -1,475 Descending FlightAware ADS-B (CYYZ)
06:20PM 42.9130 -79.0825 41° Northeast 187 215 4,400 -1,200 Descending FlightAware ADS-B (CYYZ)
06:20PM 42.9327 -79.0596 40° Northeast 180 207 4,000 -300 Descending FlightAware ADS-B (CYYZ)
06:21PM 42.9518 -79.0372 41° Northeast 187 215 4,100  Climbing FlightAware ADS-B (CYYZ)
06:21PM 42.9707 -79.0134 43° Northeast 193 222 4,000 -200 Descending FlightAware ADS-B (CYYZ)
06:22PM 42.9920 -78.9893 32° Northeast 197 227 3,900 -590 Descending FlightAware ADS-B (CYYZ)
06:22PM 43.0158 -78.9720 24° Northeast 194 223 3,400 -984 Descending FlightAware ADS-B (CYYZ)
06:23PM 43.0406 -78.9566 25° Northeast 187 215 2,900 -1,082 Descending FlightAware ADS-B (CYYZ)
06:23PM 43.0634 -78.9422 24° Northeast 180 207 2,300 -900 Descending FlightAware ADS-B (CYYZ)
06:24PM 43.0852 -78.9270 34° Northeast 167 192 2,000 -624 Descending FlightAware ADS-B (CYYZ)
06:26PM 43.1171 -78.9203 34° Northeast 167 192 1,000 -632 Descending FlightAware ADS-B (CYYZ)
06:33PM 43.1076 -78.9458 309° West  Level Estimated
06:34PM 43.1076 -78.9458 304° West  Level Estimated

Login

Don't have an account? Register now (free) for customized features, flight alerts, and more!